Time;durP1;ratioP1;P1;durP2;ratioP2;P2;SDS_P1;SDS_P2;PMS_P1;PMS_P2;Temp;Humidity;BMP_temperature;BMP_pressure;BME280_temperature;BME280_humidity;BME280_pressure;Samples;Min_cycle;Max_cycle;Signal;HPM_P1;HPM_P2
2021/07/14 00:00:10;;;;;;;0.00;0.00;;;15.90;99.90;;;;;;5055527;28;20040;-71
2021/07/14 00:02:36;;;;;;;0.00;0.00;;;16.00;99.90;;;;;;5055352;28;20029;-71
2021/07/14 00:05:09;;;;;;;0.10;0.10;;;15.80;99.90;;;;;;5055247;28;20025;-71
2021/07/14 00:07:35;;;;;;;0.10;0.10;;;15.70;99.90;;;;;;5055351;28;20025;-71
2021/07/14 00:10:08;;;;;;;0.00;0.00;;;15.80;99.90;;;;;;5055360;28;20369;-71
2021/07/14 00:12:42;;;;;;;0.00;0.00;;;15.70;99.90;;;;;;5055055;28;20492;-71
2021/07/14 00:23:11;;;;;;;0.10;0.10;;;15.60;99.90;;;;;;5055026;28;20051;-71
2021/07/14 00:25:37;;;;;;;0.00;0.00;;;15.60;99.90;;;;;;5037220;28;20037;-71
2021/07/14 00:28:03;;;;;;;0.03;0.03;;;15.50;99.90;;;;;;5054865;28;20099;-74
2021/07/14 00:30:30;;;;;;;0.10;0.10;;;15.60;99.90;;;;;;5055089;28;20024;-71
2021/07/14 00:32:56;;;;;;;0.10;0.10;;;15.70;99.90;;;;;;5054665;28;20013;-71
2021/07/14 00:35:23;;;;;;;0.10;0.10;;;15.80;99.90;;;;;;5037081;28;20027;-71
2021/07/14 00:37:49;;;;;;;0.10;0.10;;;15.70;99.90;;;;;;5037171;28;20029;-71
2021/07/14 00:40:15;;;;;;;0.10;0.10;;;15.60;99.90;;;;;;5054788;28;20107;-71
2021/07/14 00:42:42;;;;;;;0.10;0.10;;;15.30;99.90;;;;;;5054673;28;20036;-71
2021/07/14 00:45:09;;;;;;;0.10;0.10;;;15.20;99.90;;;;;;5054715;28;20033;-70
2021/07/14 00:47:37;;;;;;;0.10;0.10;;;15.20;99.90;;;;;;5054704;28;20032;-71
2021/07/14 00:50:06;;;;;;;0.10;0.10;;;15.20;99.90;;;;;;5053949;28;20017;-71
2021/07/14 00:52:31;;;;;;;0.10;0.10;;;15.30;99.90;;;;;;5054365;28;20021;-71
2021/07/14 00:54:58;;;;;;;0.10;0.10;;;15.40;99.90;;;;;;5054539;28;20583;-71
2021/07/14 00:57:27;;;;;;;0.00;0.00;;;15.40;99.90;;;;;;5054536;28;20158;-71
2021/07/14 00:59:53;;;;;;;0.10;0.10;;;15.40;99.90;;;;;;5054426;28;20021;-71
2021/07/14 01:02:20;;;;;;;0.05;0.05;;;15.40;99.90;;;;;;5054262;28;20495;-71
2021/07/14 01:05:19;;;;;;;0.08;0.08;;;15.50;99.90;;;;;;5054263;28;20045;-71
2021/07/14 01:07:54;;;;;;;0.10;0.10;;;15.60;99.90;;;;;;5019514;28;20439;-72
2021/07/14 01:10:27;;;;;;;0.10;0.10;;;15.70;99.90;;;;;;5036300;28;20040;-72
2021/07/14 01:13:06;;;;;;;0.10;0.10;;;15.90;99.90;;;;;;5053957;28;20441;-72
2021/07/14 01:16:03;;;;;;;0.10;0.10;;;16.00;99.90;;;;;;5054119;28;20052;-72
2021/07/14 01:18:34;;;;;;;0.10;0.10;;;16.00;99.90;;;;;;5030089;28;20483;-71
2021/07/14 01:21:05;;;;;;;0.08;0.08;;;16.00;99.90;;;;;;5053956;28;20029;-71
2021/07/14 01:23:40;;;;;;;0.10;0.10;;;16.00;99.90;;;;;;5053980;28;20186;-72
2021/07/14 01:26:09;;;;;;;0.10;0.10;;;16.00;99.90;;;;;;5035881;28;20055;-71
2021/07/14 01:28:37;;;;;;;0.10;0.10;;;15.90;99.90;;;;;;5035749;28;20112;-71
2021/07/14 01:31:04;;;;;;;0.10;0.10;;;16.00;99.90;;;;;;5053696;28;20044;-71
2021/07/14 01:33:38;;;;;;;0.10;0.10;;;16.00;99.90;;;;;;5035596;28;20025;-71
2021/07/14 01:36:09;;;;;;;0.00;0.00;;;16.00;99.90;;;;;;5035864;28;20043;-71
2021/07/14 01:38:38;;;;;;;0.17;0.17;;;15.90;99.90;;;;;;5053649;28;20140;-71
2021/07/14 01:41:06;;;;;;;0.10;0.10;;;15.80;99.90;;;;;;5035603;28;20036;-71
2021/07/14 01:43:37;;;;;;;0.00;0.00;;;15.60;99.90;;;;;;5053521;28;20029;-71
2021/07/14 01:46:05;;;;;;;0.10;0.10;;;15.60;99.90;;;;;;5035623;28;20055;-71
2021/07/14 01:48:33;;;;;;;0.38;0.38;;;15.70;99.90;;;;;;5035361;28;20029;-71
2021/07/14 01:51:01;;;;;;;0.10;0.10;;;15.80;99.90;;;;;;5053308;28;20021;-72
2021/07/14 01:53:27;;;;;;;0.10;0.10;;;15.90;99.90;;;;;;5053409;28;20024;-72
2021/07/14 01:55:55;;;;;;;0.10;0.10;;;15.90;99.90;;;;;;5053470;28;20025;-72
2021/07/14 01:58:26;;;;;;;0.10;0.10;;;15.80;99.90;;;;;;5053479;28;20040;-72
2021/07/14 02:00:54;;;;;;;0.00;0.00;;;15.70;99.90;;;;;;5052646;28;20059;-72
2021/07/14 02:06:01;;;;;;;0.32;0.32;;;15.60;99.90;;;;;;5053194;28;20025;-72
2021/07/14 02:08:28;;;;;;;0.10;0.10;;;15.70;99.90;;;;;;5053128;28;20035;-72
2021/07/14 02:10:56;;;;;;;0.10;0.10;;;15.80;99.90;;;;;;5052836;28;20021;-72
2021/07/14 02:13:25;;;;;;;0.03;0.03;;;15.70;99.90;;;;;;5052880;28;20025;-72
2021/07/14 02:15:54;;;;;;;0.10;0.10;;;15.90;99.90;;;;;;5052907;28;20024;-72
2021/07/14 02:18:24;;;;;;;0.00;0.00;;;15.90;99.90;;;;;;5052960;28;20025;-71
2021/07/14 02:20:52;;;;;;;0.00;0.00;;;16.00;99.90;;;;;;5052772;28;20057;-72
2021/07/14 02:23:17;;;;;;;0.00;0.00;;;15.80;99.90;;;;;;5034866;28;20025;-72
2021/07/14 02:25:43;;;;;;;0.05;0.05;;;15.80;99.90;;;;;;5102834;23;20036;-92
2021/07/14 02:28:09;;;;;;;0.00;0.00;;;15.80;99.90;;;;;;5062497;28;20009;-92
2021/07/14 02:30:35;;;;;;;0.00;0.00;;;16.00;99.90;;;;;;5062333;28;20009;-92
2021/07/14 02:33:09;;;;;;;0.17;0.17;;;16.00;99.90;;;;;;5062368;28;20084;-92
2021/07/14 02:35:40;;;;;;;0.00;0.00;;;15.90;99.90;;;;;;5062303;28;19997;-92
2021/07/14 02:38:23;;;;;;;0.00;0.00;;;15.90;99.90;;;;;;5062216;28;20091;-92
2021/07/14 02:41:15;;;;;;;0.00;0.00;;;15.70;99.90;;;;;;5062190;28;20005;-92
2021/07/14 02:43:45;;;;;;;0.10;0.10;;;15.70;99.90;;;;;;5062592;28;20005;-92
2021/07/14 02:46:15;;;;;;;0.00;0.00;;;15.70;99.90;;;;;;5062413;28;20016;-94
2021/07/14 02:48:45;;;;;;;0.52;0.52;;;15.60;99.90;;;;;;5062563;28;20041;-93
2021/07/14 02:51:14;;;;;;;0.10;0.10;;;15.70;99.90;;;;;;5062205;28;20012;-93
2021/07/14 02:53:52;;;;;;;0.55;0.38;;;15.70;99.90;;;;;;5062437;28;20065;-93
2021/07/14 02:56:22;;;;;;;0.10;0.10;;;15.70;99.90;;;;;;5062488;28;20005;-93
2021/07/14 02:58:54;;;;;;;0.10;0.10;;;15.50;99.90;;;;;;5062022;28;20072;-92
2021/07/14 03:01:21;;;;;;;0.10;0.10;;;15.30;99.90;;;;;;5061765;28;20008;-94
2021/07/14 03:03:51;;;;;;;2.45;2.30;;;15.30;99.90;;;;;;5062096;28;20008;-92
2021/07/14 03:06:17;;;;;;;0.00;0.00;;;15.40;99.90;;;;;;5062198;28;20011;-92
2021/07/14 03:08:48;;;;;;;0.10;0.10;;;15.50;99.90;;;;;;5061910;28;20013;-92
2021/07/14 03:11:17;;;;;;;0.10;0.10;;;15.60;99.90;;;;;;5061534;28;20085;-93
2021/07/14 03:13:47;;;;;;;0.10;0.10;;;15.70;99.90;;;;;;5061654;28;20005;-92
2021/07/14 03:16:14;;;;;;;0.00;0.00;;;15.90;99.90;;;;;;5061518;28;20005;-92
2021/07/14 03:18:46;;;;;;;0.00;0.00;;;15.90;99.90;;;;;;5061762;28;20005;-92
2021/07/14 03:21:12;;;;;;;0.00;0.00;;;15.90;99.90;;;;;;5061531;28;20035;-92
2021/07/14 03:23:39;;;;;;;0.10;0.10;;;15.90;99.90;;;;;;5061683;28;20077;-91
2021/07/14 03:26:06;;;;;;;0.03;0.03;;;15.80;99.90;;;;;;5061388;28;20043;-93
2021/07/14 03:28:32;;;;;;;0.10;0.10;;;15.80;99.90;;;;;;5061496;28;20048;-93
2021/07/14 03:31:02;;;;;;;0.00;0.00;;;15.70;99.90;;;;;;5061330;28;20009;-92
2021/07/14 03:33:33;;;;;;;0.00;0.00;;;15.70;99.90;;;;;;5061590;28;19997;-91
2021/07/14 03:36:00;;;;;;;0.00;0.00;;;15.80;99.90;;;;;;5061469;28;20004;-92
2021/07/14 03:38:27;;;;;;;0.20;0.20;;;15.80;99.90;;;;;;5061468;28;20009;-93
2021/07/14 03:40:54;;;;;;;0.10;0.10;;;15.80;99.90;;;;;;5061244;28;20008;-93
2021/07/14 03:43:20;;;;;;;0.10;0.10;;;15.70;99.90;;;;;;5061407;28;20005;-92
2021/07/14 03:45:48;;;;;;;0.03;0.03;;;15.70;99.90;;;;;;5061275;28;20028;-92
2021/07/14 03:48:18;;;;;;;0.00;0.00;;;15.80;99.90;;;;;;5061293;28;20008;-92
2021/07/14 03:50:51;;;;;;;0.10;0.10;;;15.90;99.90;;;;;;5061196;28;20005;-92
2021/07/14 03:53:20;;;;;;;0.10;0.10;;;15.70;99.90;;;;;;5060103;28;20017;-93
2021/07/14 03:55:47;;;;;;;0.40;0.40;;;15.70;99.90;;;;;;5059595;28;20019;-93
2021/07/14 03:58:13;;;;;;;0.20;0.20;;;15.60;99.90;;;;;;5059899;28;20012;-92
2021/07/14 04:00:44;;;;;;;0.10;0.10;;;15.60;99.90;;;;;;5059791;28;20013;-92
2021/07/14 04:03:10;;;;;;;0.10;0.10;;;15.60;99.90;;;;;;5060010;28;20021;-93
2021/07/14 04:05:46;;;;;;;0.10;0.10;;;15.50;99.90;;;;;;5059709;28;20017;-92
2021/07/14 04:08:20;;;;;;;0.08;0.08;;;15.50;99.90;;;;;;5059738;28;20025;-92
2021/07/14 04:10:46;;;;;;;0.00;0.00;;;15.60;99.90;;;;;;5059672;28;20028;-91
2021/07/14 04:13:12;;;;;;;0.00;0.00;;;15.60;99.90;;;;;;5059709;28;20021;-93
2021/07/14 04:15:38;;;;;;;0.08;0.08;;;15.40;99.90;;;;;;5059596;28;20039;-92
2021/07/14 04:18:05;;;;;;;0.10;0.10;;;15.50;99.90;;;;;;5059648;28;20033;-93
2021/07/14 04:20:32;;;;;;;0.00;0.00;;;15.50;99.90;;;;;;5059321;28;20085;-92
2021/07/14 04:22:58;;;;;;;0.08;0.08;;;15.50;99.90;;;;;;5059573;28;20017;-92
2021/07/14 04:25:24;;;;;;;0.10;0.10;;;15.40;99.90;;;;;;5061549;28;20064;-93
2021/07/14 04:27:49;;;;;;;0.10;0.10;;;15.40;99.90;;;;;;5063198;28;20028;-92
2021/07/14 04:30:17;;;;;;;0.25;0.25;;;15.50;99.90;;;;;;5063366;28;20017;-92
2021/07/14 04:32:48;;;;;;;0.00;0.00;;;15.50;99.90;;;;;;5063329;28;20029;-93
2021/07/14 04:35:36;;;;;;;0.00;0.00;;;15.40;99.90;;;;;;5065252;28;20119;-93
2021/07/14 04:38:12;;;;;;;0.10;0.10;;;15.20;99.90;;;;;;5063411;28;20032;-93
2021/07/14 04:41:04;;;;;;;0.00;0.00;;;15.20;99.90;;;;;;5062867;28;20028;-93
2021/07/14 04:43:30;;;;;;;0.00;0.00;;;15.10;99.90;;;;;;5076844;28;20013;-93
2021/07/14 04:45:58;;;;;;;0.05;0.05;;;15.30;99.90;;;;;;5063081;28;20089;-93
2021/07/14 04:48:24;;;;;;;0.10;0.10;;;15.20;99.90;;;;;;5062698;28;20052;-92
2021/07/14 04:50:50;;;;;;;0.10;0.10;;;15.30;99.90;;;;;;5062673;28;20009;-92
2021/07/14 04:53:19;;;;;;;0.10;0.10;;;15.30;99.90;;;;;;5062797;28;20016;-92
2021/07/14 04:56:05;;;;;;;0.28;0.28;;;15.30;99.90;;;;;;5078003;28;20025;-93
2021/07/14 04:58:51;;;;;;;0.05;0.05;;;15.40;99.90;;;;;;5060837;28;20038;-92
2021/07/14 05:01:47;;;;;;;0.10;0.10;;;15.50;99.90;;;;;;5078996;28;20036;-92
2021/07/14 05:04:38;;;;;;;0.10;0.10;;;15.60;99.90;;;;;;5062536;28;20021;-92
2021/07/14 05:07:23;;;;;;;0.10;0.10;;;15.70;99.90;;;;;;5062819;28;20096;-93
2021/07/14 05:09:51;;;;;;;0.20;0.20;;;15.80;99.90;;;;;;5044014;28;20013;-91
2021/07/14 05:12:34;;;;;;;0.10;0.10;;;15.70;99.90;;;;;;5061785;28;20040;-92
2021/07/14 05:15:09;;;;;;;0.10;0.10;;;15.60;99.90;;;;;;5026661;22;20107;-76
2021/07/14 05:17:35;;;;;;;0.10;0.10;;;15.40;99.90;;;;;;5029617;28;20033;-77
2021/07/14 05:20:01;;;;;;;0.05;0.05;;;15.40;99.90;;;;;;5016164;28;20388;-77
2021/07/14 05:22:26;;;;;;;0.20;0.20;;;15.50;99.90;;;;;;5024281;28;20396;-76
2021/07/14 05:24:52;;;;;;;0.00;0.00;;;15.30;99.90;;;;;;5017816;28;20044;-76
2021/07/14 05:27:19;;;;;;;0.20;0.20;;;15.20;99.90;;;;;;5018634;28;20021;-77
2021/07/14 05:29:44;;;;;;;0.10;0.10;;;15.20;99.90;;;;;;5033915;28;20106;-77
2021/07/14 05:32:10;;;;;;;0.10;0.10;;;15.20;99.90;;;;;;5051787;28;20025;-76
2021/07/14 05:34:36;;;;;;;0.30;0.20;;;15.30;99.90;;;;;;5021605;28;20048;-77
2021/07/14 05:37:02;;;;;;;8.20;4.65;;;15.40;99.90;;;;;;5028469;28;20477;-77
2021/07/14 05:39:27;;;;;;;0.20;0.20;;;15.20;99.90;;;;;;5013233;28;20120;-77
2021/07/14 05:41:53;;;;;;;0.00;0.00;;;15.00;99.90;;;;;;5039439;28;20026;-76
2021/07/14 05:44:19;;;;;;;0.40;0.30;;;15.10;99.90;;;;;;5028521;28;20385;-76
2021/07/14 05:46:45;;;;;;;0.10;0.10;;;15.00;99.90;;;;;;5025052;28;20527;-77
2021/07/14 05:49:11;;;;;;;0.10;0.10;;;15.10;99.90;;;;;;5047312;28;20047;-76
2021/07/14 05:51:37;;;;;;;0.10;0.10;;;15.10;99.90;;;;;;5005252;28;20480;-77
2021/07/14 05:54:03;;;;;;;0.10;0.10;;;15.20;99.90;;;;;;5026654;28;20477;-76
2021/07/14 05:56:29;;;;;;;0.10;0.10;;;15.20;99.90;;;;;;5044254;28;20489;-77
2021/07/14 05:58:55;;;;;;;0.80;0.80;;;15.10;99.90;;;;;;5027828;28;20064;-77
2021/07/14 06:01:21;;;;;;;0.10;0.10;;;15.20;99.90;;;;;;5024123;28;20029;-77
2021/07/14 06:03:47;;;;;;;0.10;0.10;;;15.30;99.90;;;;;;5046491;28;20032;-77
2021/07/14 06:06:15;;;;;;;0.10;0.10;;;15.40;99.90;;;;;;5028075;28;20029;-77
2021/07/14 06:08:41;;;;;;;0.10;0.10;;;15.40;99.90;;;;;;5008289;28;20048;-76
2021/07/14 06:11:07;;;;;;;0.10;0.10;;;15.40;99.90;;;;;;5047374;28;20392;-76
2021/07/14 06:13:33;;;;;;;0.10;0.10;;;15.50;99.90;;;;;;5016386;28;21218;-76
2021/07/14 06:15:59;;;;;;;0.10;0.10;;;15.30;99.90;;;;;;5014370;28;20469;-76
2021/07/14 06:18:25;;;;;;;0.10;0.10;;;15.40;99.90;;;;;;5037687;28;20017;-77
2021/07/14 06:20:53;;;;;;;0.10;0.10;;;15.50;99.90;;;;;;5008024;28;20029;-77
2021/07/14 06:23:19;;;;;;;0.50;0.50;;;15.60;99.90;;;;;;5013721;28;20083;-75
2021/07/14 06:25:45;;;;;;;0.10;0.10;;;15.60;99.90;;;;;;5050139;28;20032;-75
2021/07/14 06:28:14;;;;;;;0.00;0.00;;;15.50;99.90;;;;;;5036766;28;20430;-75
2021/07/14 06:30:41;;;;;;;0.10;0.10;;;15.60;99.90;;;;;;5043909;28;20104;-75
2021/07/14 06:33:07;;;;;;;0.10;0.10;;;15.60;99.90;;;;;;5022282;28;20026;-75
2021/07/14 06:35:32;;;;;;;0.10;0.10;;;15.40;99.90;;;;;;5047656;28;20025;-77
2021/07/14 06:37:59;;;;;;;0.10;0.10;;;15.50;99.90;;;;;;5004936;28;20029;-74
2021/07/14 06:40:25;;;;;;;0.13;0.13;;;15.70;99.90;;;;;;5045659;28;20025;-75
2021/07/14 06:42:51;;;;;;;0.10;0.10;;;15.60;99.90;;;;;;5037648;28;20036;-75
2021/07/14 06:45:17;;;;;;;0.10;0.10;;;15.30;99.90;;;;;;5047228;28;20028;-75
2021/07/14 06:47:43;;;;;;;0.10;0.10;;;15.40;99.90;;;;;;5044006;28;20412;-78
2021/07/14 06:50:12;;;;;;;0.10;0.10;;;15.50;99.90;;;;;;5033835;28;20024;-75
2021/07/14 06:52:39;;;;;;;0.32;0.32;;;15.50;99.90;;;;;;5045006;28;20511;-74
2021/07/14 06:55:06;;;;;;;0.10;0.10;;;15.70;99.90;;;;;;5049193;28;20460;-74
2021/07/14 06:57:32;;;;;;;0.30;0.30;;;15.60;99.90;;;;;;5027583;28;20044;-77
2021/07/14 06:59:58;;;;;;;0.10;0.10;;;15.60;99.90;;;;;;5038736;28;20053;-76
2021/07/14 07:02:24;;;;;;;0.30;0.30;;;15.60;99.90;;;;;;5025956;28;20120;-76
2021/07/14 07:04:50;;;;;;;0.03;0.03;;;15.60;99.90;;;;;;5041192;28;20033;-77
2021/07/14 07:07:16;;;;;;;2.42;0.57;;;15.80;99.90;;;;;;5041292;28;20079;-77
2021/07/14 07:09:44;;;;;;;0.00;0.00;;;15.80;99.90;;;;;;5028659;28;20021;-76
2021/07/14 07:12:10;;;;;;;0.20;0.20;;;15.90;99.90;;;;;;5024260;28;20113;-77
2021/07/14 07:14:36;;;;;;;0.30;0.30;;;15.80;99.90;;;;;;5008942;28;20025;-77
2021/07/14 07:17:02;;;;;;;0.45;0.43;;;15.60;99.90;;;;;;5044495;28;20123;-77
2021/07/14 07:19:28;;;;;;;0.10;0.10;;;15.60;99.90;;;;;;5009194;28;20032;-77
2021/07/14 07:21:53;;;;;;;0.10;0.10;;;15.60;99.90;;;;;;5002656;28;20485;-76
2021/07/14 07:24:19;;;;;;;0.20;0.20;;;15.60;99.90;;;;;;5027944;28;20025;-76
2021/07/14 07:26:47;;;;;;;0.50;0.50;;;15.60;99.90;;;;;;5024619;28;20417;-78
2021/07/14 07:29:13;;;;;;;0.00;0.00;;;15.80;99.90;;;;;;5031694;28;20028;-78
2021/07/14 07:31:39;;;;;;;0.80;0.55;;;16.00;99.90;;;;;;5044134;28;20017;-76
2021/07/14 07:34:05;;;;;;;1.20;0.52;;;16.30;99.90;;;;;;5046076;28;20045;-76
2021/07/14 07:36:31;;;;;;;0.10;0.10;;;16.10;99.90;;;;;;5045251;28;20404;-73
2021/07/14 07:38:57;;;;;;;0.30;0.30;;;16.10;99.90;;;;;;5028179;28;20079;-74
2021/07/14 07:41:25;;;;;;;0.10;0.10;;;16.10;99.90;;;;;;5001040;28;20079;-77
2021/07/14 07:43:52;;;;;;;0.43;0.40;;;16.20;99.90;;;;;;5042276;28;20119;-76
2021/07/14 07:46:18;;;;;;;0.10;0.10;;;16.40;99.90;;;;;;5021562;28;20390;-76
2021/07/14 07:48:44;;;;;;;0.10;0.10;;;16.40;99.90;;;;;;5041365;28;20470;-76
2021/07/14 07:51:10;;;;;;;0.45;0.45;;;16.40;99.90;;;;;;5044298;28;20083;-76
2021/07/14 07:53:38;;;;;;;0.13;0.13;;;16.40;99.90;;;;;;5011572;28;20401;-76
2021/07/14 07:56:05;;;;;;;0.35;0.20;;;16.30;99.90;;;;;;5038536;28;20021;-77
2021/07/14 07:58:31;;;;;;;5.22;0.47;;;16.20;99.90;;;;;;5028567;28;20032;-76
2021/07/14 08:00:57;;;;;;;0.25;0.25;;;16.30;99.90;;;;;;5027217;28;20054;-76
2021/07/14 08:03:23;;;;;;;0.10;0.10;;;16.40;99.90;;;;;;5032413;28;20073;-75
2021/07/14 08:05:49;;;;;;;0.15;0.15;;;16.50;99.90;;;;;;5026956;28;20053;-76
2021/07/14 08:08:16;;;;;;;0.10;0.10;;;16.40;99.90;;;;;;5051516;28;20021;-76
2021/07/14 08:10:43;;;;;;;0.28;0.28;;;16.50;99.90;;;;;;5048383;28;20027;-75
2021/07/14 08:13:08;;;;;;;0.77;0.77;;;16.30;99.90;;;;;;5051007;28;20152;-76
2021/07/14 08:15:35;;;;;;;0.20;0.20;;;16.10;99.90;;;;;;5043648;28;20120;-76
2021/07/14 08:18:01;;;;;;;0.10;0.10;;;16.20;99.90;;;;;;5045148;28;20040;-76
2021/07/14 08:20:27;;;;;;;1.00;0.45;;;16.60;99.90;;;;;;5021229;28;20033;-77
2021/07/14 08:22:54;;;;;;;1.20;0.77;;;16.80;99.90;;;;;;5028144;28;20396;-77
2021/07/14 08:25:20;;;;;;;0.10;0.10;;;16.80;99.90;;;;;;5053690;28;20560;-76
2021/07/14 08:27:46;;;;;;;0.80;0.35;;;17.00;99.90;;;;;;5044645;28;20029;-76
2021/07/14 08:30:13;;;;;;;0.43;0.43;;;17.10;99.90;;;;;;5044280;28;20048;-76
2021/07/14 08:32:39;;;;;;;0.10;0.10;;;16.90;99.90;;;;;;5025011;28;20024;-76
2021/07/14 08:35:08;;;;;;;0.10;0.10;;;16.90;99.90;;;;;;5022163;28;20025;-74
2021/07/14 08:37:34;;;;;;;0.10;0.10;;;17.20;99.90;;;;;;5035028;28;20104;-76
2021/07/14 08:40:00;;;;;;;0.15;0.15;;;17.30;99.90;;;;;;5000196;28;20040;-76
2021/07/14 08:42:26;;;;;;;0.20;0.20;;;17.40;99.90;;;;;;5033197;28;20127;-78
2021/07/14 08:44:53;;;;;;;0.20;0.20;;;17.40;99.90;;;;;;5021605;28;20036;-75
2021/07/14 08:47:20;;;;;;;0.10;0.10;;;17.10;99.90;;;;;;5019723;28;20052;-76
2021/07/14 08:49:48;;;;;;;0.10;0.10;;;17.00;99.90;;;;;;5040855;28;20052;-76
2021/07/14 08:52:16;;;;;;;0.35;0.25;;;16.90;99.90;;;;;;5049265;28;20052;-77
2021/07/14 08:54:43;;;;;;;0.10;0.10;;;16.90;99.90;;;;;;5019473;28;20044;-77
2021/07/14 08:57:17;;;;;;;0.38;0.38;;;16.80;99.90;;;;;;5026829;28;20398;-75
2021/07/14 08:59:44;;;;;;;0.20;0.20;;;16.50;99.90;;;;;;4983517;28;20029;-76
2021/07/14 09:02:12;;;;;;;0.20;0.20;;;16.60;99.90;;;;;;5021573;28;20063;-76
2021/07/14 09:04:38;;;;;;;1.98;0.43;;;16.40;99.90;;;;;;5018293;28;20052;-80
2021/07/14 09:07:06;;;;;;;0.10;0.10;;;16.50;99.90;;;;;;5028846;28;20025;-79
2021/07/14 09:09:32;;;;;;;0.10;0.10;;;16.80;99.90;;;;;;5040450;28;20047;-79
2021/07/14 09:12:01;;;;;;;0.10;0.10;;;16.80;99.90;;;;;;5015605;28;20017;-78
2021/07/14 09:14:39;;;;;;;0.30;0.30;;;16.90;99.90;;;;;;5054262;28;20438;-77
2021/07/14 09:17:22;;;;;;;0.10;0.10;;;17.10;99.90;;;;;;5046881;28;20037;-77
2021/07/14 09:19:48;;;;;;;0.10;0.10;;;17.10;99.90;;;;;;5026127;28;20021;-77
2021/07/14 09:22:26;;;;;;;1.50;1.40;;;17.00;99.90;;;;;;5034123;28;20024;-78
2021/07/14 09:24:56;;;;;;;0.10;0.10;;;17.00;99.90;;;;;;5026985;28;20014;-79
2021/07/14 09:27:35;;;;;;;0.10;0.10;;;17.10;99.90;;;;;;5027573;28;20108;-79
2021/07/14 09:30:12;;;;;;;0.10;0.10;;;17.10;99.90;;;;;;5036887;28;20032;-76
2021/07/14 09:32:48;;;;;;;0.10;0.10;;;17.20;99.90;;;;;;5036148;28;20100;-77
2021/07/14 09:35:32;;;;;;;0.10;0.10;;;17.30;99.90;;;;;;5054407;28;20090;-76
2021/07/14 09:38:08;;;;;;;0.10;0.10;;;17.20;99.90;;;;;;5035560;28;20112;-77
2021/07/14 09:40:41;;;;;;;0.10;0.10;;;16.90;99.90;;;;;;5036753;28;20036;-78
2021/07/14 09:43:17;;;;;;;0.10;0.10;;;16.90;99.90;;;;;;5020759;28;20485;-77
2021/07/14 09:46:00;;;;;;;0.20;0.20;;;17.00;99.90;;;;;;5020188;28;20031;-78
2021/07/14 09:48:27;;;;;;;0.20;0.20;;;17.20;99.90;;;;;;5016459;28;20040;-78
2021/07/14 09:51:03;;;;;;;0.00;0.00;;;17.30;99.90;;;;;;5032606;28;20496;-77
2021/07/14 09:53:33;;;;;;;0.05;0.05;;;17.20;99.90;;;;;;5010468;28;20071;-78
2021/07/14 09:56:09;;;;;;;0.15;0.15;;;17.30;99.90;;;;;;5023254;28;20029;-76
2021/07/14 09:58:36;;;;;;;0.10;0.10;;;17.30;99.90;;;;;;5006531;28;20037;-77
2021/07/14 10:01:05;;;;;;;0.10;0.10;;;17.40;99.90;;;;;;5038641;28;20021;-73
2021/07/14 10:03:37;;;;;;;0.47;0.47;;;17.40;99.90;;;;;;5027788;28;20407;-73
2021/07/14 10:06:11;;;;;;;0.13;0.13;;;17.30;99.90;;;;;;5043467;28;20025;-74
2021/07/14 10:08:48;;;;;;;0.15;0.15;;;17.10;99.90;;;;;;5019545;28;20552;-72
2021/07/14 10:11:23;;;;;;;0.30;0.30;;;17.20;99.90;;;;;;5003152;28;20366;-73
2021/07/14 10:13:59;;;;;;;0.25;0.25;;;17.50;99.90;;;;;;5037156;28;20092;-73
2021/07/14 10:16:29;;;;;;;0.10;0.10;;;17.70;99.90;;;;;;5037510;28;20025;-73
2021/07/14 10:19:05;;;;;;;0.20;0.20;;;17.90;99.90;;;;;;5045964;28;20025;-74
2021/07/14 10:21:36;;;;;;;0.55;0.55;;;17.80;99.90;;;;;;5027762;28;20029;-73
2021/07/14 10:24:07;;;;;;;0.10;0.10;;;18.10;99.90;;;;;;5037377;28;20029;-73
2021/07/14 10:26:36;;;;;;;0.10;0.10;;;18.60;99.90;;;;;;5046522;28;20471;-73
2021/07/14 10:29:04;;;;;;;0.05;0.05;;;18.80;99.90;;;;;;5027738;28;20021;-73
2021/07/14 10:31:30;;;;;;;0.38;0.38;;;18.60;99.90;;;;;;5035671;28;20467;-73
2021/07/14 10:33:57;;;;;;;0.10;0.10;;;18.30;99.90;;;;;;5039592;28;20033;-73
2021/07/14 10:36:27;;;;;;;0.00;0.00;;;18.40;99.90;;;;;;5033851;28;20025;-73
2021/07/14 10:38:58;;;;;;;0.75;0.43;;;18.50;99.90;;;;;;5032214;28;20032;-73
2021/07/14 10:41:26;;;;;;;0.10;0.10;;;18.50;99.90;;;;;;5020766;28;20512;-73
2021/07/14 10:43:54;;;;;;;0.10;0.10;;;18.40;99.90;;;;;;5043204;28;20104;-73
2021/07/14 10:46:25;;;;;;;0.10;0.10;;;18.40;99.90;;;;;;5002464;28;20473;-73
2021/07/14 10:48:52;;;;;;;0.10;0.10;;;18.40;99.90;;;;;;5038657;28;20026;-73
2021/07/14 10:51:19;;;;;;;0.20;0.20;;;18.30;99.90;;;;;;5026520;28;20107;-73
2021/07/14 10:53:48;;;;;;;0.25;0.25;;;18.20;99.90;;;;;;5017195;28;20021;-73
2021/07/14 10:56:15;;;;;;;0.20;0.20;;;17.70;99.90;;;;;;5001876;28;20053;-73
2021/07/14 10:58:44;;;;;;;0.40;0.20;;;17.60;99.90;;;;;;5041351;28;20055;-73
2021/07/14 11:01:10;;;;;;;1.48;0.73;;;17.40;99.90;;;;;;5045960;28;20103;-72
2021/07/14 11:03:36;;;;;;;0.10;0.10;;;17.50;99.90;;;;;;5046384;28;20163;-73
2021/07/14 11:06:07;;;;;;;0.35;0.35;;;17.70;99.90;;;;;;5037297;28;20095;-73
2021/07/14 11:08:47;;;;;;;0.20;0.20;;;17.70;99.90;;;;;;5042467;28;20024;-73
2021/07/14 11:11:24;;;;;;;0.10;0.10;;;17.70;99.90;;;;;;5041017;28;20053;-73
2021/07/14 11:14:10;;;;;;;0.10;0.10;;;17.80;99.90;;;;;;5041731;28;20056;-73
2021/07/14 11:16:41;;;;;;;0.10;0.10;;;18.00;99.90;;;;;;5023691;28;20094;-74
2021/07/14 11:19:12;;;;;;;0.10;0.10;;;18.10;99.90;;;;;;5042332;28;20115;-73
2021/07/14 11:21:55;;;;;;;0.10;0.10;;;17.90;99.90;;;;;;5029096;28;20029;-75
2021/07/14 11:24:36;;;;;;;0.10;0.10;;;18.00;99.90;;;;;;5022422;28;20385;-73
2021/07/14 11:27:41;;;;;;;0.45;0.45;;;18.10;99.90;;;;;;5014530;28;20619;-73
2021/07/14 11:30:07;;;;;;;1.25;0.30;;;18.00;99.90;;;;;;5035270;28;20112;-73
2021/07/14 11:32:38;;;;;;;0.10;0.10;;;17.70;99.90;;;;;;5021542;28;20425;-73
2021/07/14 11:35:11;;;;;;;0.52;0.52;;;17.50;99.90;;;;;;5021436;28;20511;-73
2021/07/14 11:37:39;;;;;;;1.98;1.85;;;17.40;99.90;;;;;;5018774;28;20112;-73
2021/07/14 11:40:20;;;;;;;0.10;0.10;;;17.30;99.90;;;;;;5042528;28;20025;-73
2021/07/14 11:42:50;;;;;;;0.22;0.22;;;17.30;99.90;;;;;;5031143;28;20049;-74
2021/07/14 11:45:17;;;;;;;0.28;0.28;;;17.40;99.90;;;;;;5048992;28;20079;-73
2021/07/14 11:47:43;;;;;;;0.10;0.10;;;17.30;99.90;;;;;;5023942;28;20057;-73
2021/07/14 11:50:10;;;;;;;0.10;0.10;;;17.40;99.90;;;;;;5042556;28;20028;-73
2021/07/14 11:52:44;;;;;;;0.10;0.10;;;17.30;99.90;;;;;;5045726;28;20021;-74
2021/07/14 11:55:22;;;;;;;0.20;0.20;;;17.50;99.90;;;;;;5032040;28;20101;-73
2021/07/14 11:57:49;;;;;;;0.10;0.10;;;17.40;99.90;;;;;;5045104;28;20108;-73
2021/07/14 12:00:15;;;;;;;0.10;0.10;;;17.30;99.90;;;;;;5045686;28;20021;-74
2021/07/14 12:03:00;;;;;;;0.10;0.10;;;17.50;99.90;;;;;;5036202;28;20788;-73
2021/07/14 12:05:35;;;;;;;0.10;0.10;;;17.50;99.90;;;;;;5046816;28;20091;-73
2021/07/14 12:08:09;;;;;;;0.10;0.10;;;17.30;99.90;;;;;;5020093;28;20021;-74
2021/07/14 12:10:35;;;;;;;0.20;0.20;;;17.40;99.90;;;;;;5046415;28;20021;-73
2021/07/14 12:13:01;;;;;;;0.15;0.15;;;17.20;99.90;;;;;;5022140;28;20384;-73
2021/07/14 12:15:27;;;;;;;1.20;0.75;;;17.10;99.90;;;;;;5015655;28;20028;-75
2021/07/14 12:17:54;;;;;;;0.40;0.40;;;17.10;99.90;;;;;;5033040;28;20413;-75
2021/07/14 12:20:19;;;;;;;2.50;1.52;;;16.90;99.90;;;;;;5024991;28;20377;-74
2021/07/14 12:22:45;;;;;;;0.55;0.55;;;16.70;99.90;;;;;;5039859;28;20092;-75
2021/07/14 12:25:13;;;;;;;0.10;0.10;;;16.40;99.90;;;;;;5019345;28;20033;-75
2021/07/14 12:27:45;;;;;;;0.30;0.30;;;16.40;99.90;;;;;;5044608;28;20579;-75
2021/07/14 12:30:17;;;;;;;0.20;0.20;;;16.30;99.90;;;;;;5020612;28;20385;-74
2021/07/14 12:32:53;;;;;;;1.20;0.32;;;16.20;99.90;;;;;;5031307;28;20362;-74
2021/07/14 12:35:21;;;;;;;0.55;0.55;;;16.10;99.90;;;;;;5045970;28;20028;-75
2021/07/14 12:37:49;;;;;;;0.10;0.10;;;16.20;99.90;;;;;;5006322;28;20033;-75
2021/07/14 12:40:28;;;;;;;0.00;0.00;;;16.10;99.90;;;;;;5044719;28;20029;-75
2021/07/14 12:43:00;;;;;;;0.10;0.10;;;16.20;99.90;;;;;;5027758;28;20033;-74
2021/07/14 12:45:28;;;;;;;0.10;0.10;;;16.30;99.90;;;;;;5040640;28;20563;-75
2021/07/14 12:47:55;;;;;;;0.10;0.10;;;16.30;99.90;;;;;;5039097;28;20034;-75
2021/07/14 12:50:26;;;;;;;0.10;0.10;;;16.30;99.90;;;;;;5043782;28;20017;-75
2021/07/14 12:53:00;;;;;;;0.40;0.40;;;16.40;99.90;;;;;;5030911;28;20028;-75
2021/07/14 12:55:26;;;;;;;0.65;0.65;;;16.00;99.90;;;;;;5021695;28;20034;-75
2021/07/14 12:57:59;;;;;;;0.10;0.10;;;15.80;99.90;;;;;;5028966;28;20131;-75
2021/07/14 13:00:25;;;;;;;0.10;0.10;;;15.60;99.90;;;;;;5031858;28;20388;-75
2021/07/14 13:02:56;;;;;;;0.10;0.10;;;15.50;99.90;;;;;;5026574;28;20036;-76
2021/07/14 13:05:23;;;;;;;0.20;0.20;;;15.60;99.90;;;;;;5039880;28;20026;-75
2021/07/14 13:07:53;;;;;;;0.10;0.10;;;15.60;99.90;;;;;;5048329;28;20528;-76
2021/07/14 13:10:21;;;;;;;0.10;0.10;;;15.70;99.90;;;;;;5048914;28;20065;-75